Stella Polaris — PEBD — position and weather

sailwx.info

Track history (hours):
 
Tides and Currents Weather Stations Pressure Air Temp Water Temp Dewpoint Dewpoint Depression Visibility Wind Speed Wind Dir Waves Ship Positions

Stella Polaris

Last reported at 2014-Dec-17 10:33 UTC. Time now 2014-Dec-21 02:39 UTC.
Position N 46°33' W 072°09'.

Length 117 m; draft 5.2 m.

Type: Ship (hazmat cat A). MMSI: 245911000.

Date/timePositionNaut miles runAvg speedWind from/ knotsBaromVisibWave heightAir tempDewpointWater temp
2014-Dec-17 10:33N 46°33' W 072°09'1514.5
2014-Dec-17 09:33N 46°24' W 072°25'1212.1
2014-Dec-17 08:33N 46°16' W 072°38'1514.7
2014-Dec-17 07:33N 46°09' W 072°57'1613.4
2014-Dec-17 06:23N 45°58' W 073°12'1113.6
2014-Dec-17 05:33N 45°48' W 073°20'1313.2
2014-Dec-17 04:33N 45°37' W 073°30'6 5.9
2014-Dec-17 03:33N 45°31' W 073°31'1 1.2
2014-Dec-17 02:33N 45°30' W 073°31'5 4.9
2014-Dec-17 01:33N 45°25' W 073°31'3 3.5
2014-Dec-17 00:34N 45°24' W 073°36'7 7.0
2014-Dec-16 23:33N 45°24' W 073°46'8 8.4
2014-Dec-16 22:33N 45°19' W 073°55'2 1.8
2014-Dec-16 21:33N 45°17' W 073°56'6 5.8
2014-Dec-16 20:33N 45°13' W 074°02'10 9.9
2014-Dec-16 19:34N 45°13' W 074°16'  
2014-Dec-12 01:33N 44°02' W 076°27'5 4.7
2014-Dec-12 00:33N 44°06' W 076°24'1210.5
2014-Dec-11 23:22N 44°14' W 076°10'113 8.2
2014-Dec-11 09:33N 45°16' W 073°57'3 2.8
2014-Dec-11 08:33N 45°19' W 073°55'1 1.4
2014-Dec-11 07:33N 45°20' W 073°54'10 9.9
2014-Dec-11 06:33N 45°25' W 073°42'6 4.8
2014-Dec-11 05:20N 45°24' W 073°34'59 5.0
2014-Dec-10 17:32N 46°13' W 072°47'1010.4
2014-Dec-10 16:33N 46°18' W 072°34'1010.0
2014-Dec-10 15:33N 46°25' W 072°23'10 9.9
2014-Dec-10 14:33N 46°31' W 072°12'  
Track history (hours):
 
Tides and Currents Weather Stations Pressure Air Temp Water Temp Dewpoint Dewpoint Depression Visibility Wind Speed Wind Dir Waves Ship Positions

Stella Polaris

Last reported at 2014-Dec-17 10:33 UTC. Time now 2014-Dec-21 02:39 UTC.
Position N 46°33' W 072°09'.

Length 117 m; draft 5.2 m.

Type: Ship (hazmat cat A). MMSI: 245911000.

Date/timePositionNaut miles runAvg speedWind from/ knotsBaromVisibWave heightAir tempDewpointWater temp
2014-Dec-17 10:33N 46°33' W 072°09'1514.5
2014-Dec-17 09:33N 46°24' W 072°25'1212.1
2014-Dec-17 08:33N 46°16' W 072°38'1514.7
2014-Dec-17 07:33N 46°09' W 072°57'1613.4
2014-Dec-17 06:23N 45°58' W 073°12'1113.6
2014-Dec-17 05:33N 45°48' W 073°20'1313.2
2014-Dec-17 04:33N 45°37' W 073°30'6 5.9
2014-Dec-17 03:33N 45°31' W 073°31'1 1.2
2014-Dec-17 02:33N 45°30' W 073°31'5 4.9
2014-Dec-17 01:33N 45°25' W 073°31'3 3.5
2014-Dec-17 00:34N 45°24' W 073°36'7 7.0
2014-Dec-16 23:33N 45°24' W 073°46'8 8.4
2014-Dec-16 22:33N 45°19' W 073°55'2 1.8
2014-Dec-16 21:33N 45°17' W 073°56'6 5.8
2014-Dec-16 20:33N 45°13' W 074°02'10 9.9
2014-Dec-16 19:34N 45°13' W 074°16'  
2014-Dec-12 01:33N 44°02' W 076°27'5 4.7
2014-Dec-12 00:33N 44°06' W 076°24'1210.5
2014-Dec-11 23:22N 44°14' W 076°10'113 8.2
2014-Dec-11 09:33N 45°16' W 073°57'3 2.8
2014-Dec-11 08:33N 45°19' W 073°55'1 1.4
2014-Dec-11 07:33N 45°20' W 073°54'10 9.9
2014-Dec-11 06:33N 45°25' W 073°42'6 4.8
2014-Dec-11 05:20N 45°24' W 073°34'59 5.0
2014-Dec-10 17:32N 46°13' W 072°47'1010.4
2014-Dec-10 16:33N 46°18' W 072°34'1010.0
2014-Dec-10 15:33N 46°25' W 072°23'10 9.9
2014-Dec-10 14:33N 46°31' W 072°12'  

Dump ship's entire track history